This is the latest recevied weather packets stored in our database for station/object HA5CD-6. If no packets are shown the sender has not sent any weather packets the latest 10 day(s).
| Time | Temp. | Humidity | Pressure | Rain* | Wind** | Luminosity | Snow |
|---|---|---|---|---|---|---|---|
| 1777996358 | 32.78° C | 19% | 987 hPa | - | - | - | - |
| 1777995835 | 32.22° C | 19% | 987 hPa | - | - | - | - |
| 1777994558 | 32.22° C | 20% | 987 hPa | - | - | - | - |
| 1777993959 | 31.67° C | 20% | 987 hPa | - | - | - | - |
| 1777993358 | 34.44° C | 16% | 987 hPa | - | - | - | - |
| 1777992157 | 32.22° C | 19% | 987 hPa | - | - | - | - |
| 1777991557 | 28.33° C | 24% | 987 hPa | - | - | - | - |
| 1777990957 | 30.56° C | 22% | 987 hPa | - | - | - | - |
| 1777990357 | 29.44° C | 24% | 988 hPa | - | - | - | - |
| 1777989757 | 29.44° C | 23% | 988 hPa | - | - | - | - |
| 1777988561 | 32.22° C | 22% | 988 hPa | - | - | - | - |
| 1777987958 | 31.11° C | 22% | 988 hPa | - | - | - | - |
| 1777987356 | 30° C | 23% | 988 hPa | - | - | - | - |
| 1777986156 | 30.56° C | 22% | 988 hPa | - | - | - | - |
| 1777985563 | 32.78° C | 19% | 988 hPa | - | - | - | - |
| 1777984373 | 31.67° C | 21% | 988 hPa | - | - | - | - |
| 1777983156 | 28.33° C | 25% | 989 hPa | - | - | - | - |
| 1777981955 | 29.44° C | 23% | 989 hPa | - | - | - | - |
| 1777981355 | 27.78° C | 25% | 989 hPa | - | - | - | - |
| 1777980755 | 29.44° C | 23% | 989 hPa | - | - | - | - |
| 1777979601 | 29.44° C | 23% | 989 hPa | - | - | - | - |
| 1777978956 | 28.89° C | 23% | 989 hPa | - | - | - | - |
| 1777978355 | 28.33° C | 23% | 989 hPa | - | - | - | - |
| 1777977755 | 28.33° C | 23% | 990 hPa | - | - | - | - |
| 1777977154 | 28.33° C | 23% | 990 hPa | - | - | - | - |
* Rain since midnight (hover to see other rain measurements)
** Current wind speed in m/s (hover to see current wind gust speed)